createdAt,value
2022-12-26T00:00:47.798Z,9.53
2022-12-26T00:10:52.000Z,9.48
2022-12-26T00:20:54.764Z,9.57
2022-12-26T00:30:58.979Z,9.49
2022-12-26T00:41:02.103Z,9.47
2022-12-26T00:51:07.314Z,9.42
2022-12-26T01:01:14.626Z,9.47
2022-12-26T01:11:40.095Z,9.46
2022-12-26T01:21:43.880Z,9.42
2022-12-26T01:31:48.091Z,9.39
2022-12-26T01:41:50.859Z,9.41
2022-12-26T01:52:00.739Z,9.39
2022-12-26T02:02:05.285Z,9.36
2022-12-26T02:12:36.319Z,9.29
2022-12-26T02:23:17.757Z,9.19
2022-12-26T02:33:33.490Z,9.10
2022-12-26T02:43:42.378Z,9.06
2022-12-26T02:54:12.860Z,9.08
2022-12-26T03:04:36.412Z,9.19
2022-12-26T03:14:47.195Z,9.23
2022-12-26T03:25:04.375Z,9.21
2022-12-26T03:35:14.243Z,9.26
2022-12-26T03:45:41.922Z,9.25
2022-12-26T03:56:11.602Z,9.33
2022-12-26T04:06:33.450Z,9.26
2022-12-26T04:16:59.348Z,9.30
2022-12-26T04:27:22.301Z,9.30
2022-12-26T04:37:47.266Z,9.32
2022-12-26T04:48:05.145Z,9.38
2022-12-26T04:58:09.455Z,9.51
2022-12-26T05:08:41.442Z,9.51
2022-12-26T05:19:03.513Z,9.61
2022-12-26T05:29:06.382Z,9.62
2022-12-26T05:39:10.821Z,9.63
2022-12-26T05:49:14.126Z,9.74
2022-12-26T05:59:18.297Z,9.61
2022-12-26T06:09:21.020Z,9.62
2022-12-26T06:19:25.127Z,9.62
2022-12-26T06:29:28.279Z,9.64
2022-12-26T06:39:32.537Z,9.63
2022-12-26T06:49:35.318Z,9.69
2022-12-26T06:59:39.505Z,9.61
2022-12-26T07:09:42.448Z,9.63
2022-12-26T07:19:46.500Z,9.66
2022-12-26T07:29:49.317Z,9.70
2022-12-26T07:39:58.705Z,9.77
2022-12-26T07:50:02.364Z,9.83
2022-12-26T08:00:08.531Z,9.78
2022-12-26T08:10:11.418Z,9.90
2022-12-26T08:20:15.980Z,9.93
2022-12-26T08:30:18.895Z,9.96
2022-12-26T08:40:41.858Z,10.12
2022-12-26T08:50:45.929Z,10.12
2022-12-26T09:00:55.016Z,10.33
2022-12-26T09:11:02.603Z,10.36
2022-12-26T09:21:09.174Z,10.38
2022-12-26T09:31:14.429Z,10.43
2022-12-26T09:41:52.853Z,10.66
2022-12-26T09:51:58.586Z,10.49
2022-12-26T10:02:02.984Z,10.46
2022-12-26T10:12:22.642Z,10.26
2022-12-26T10:22:46.459Z,10.20
2022-12-26T10:32:54.009Z,10.34
2022-12-26T10:43:01.658Z,10.30
2022-12-26T10:53:06.865Z,10.22
2022-12-26T11:03:13.441Z,10.41
2022-12-26T11:13:21.236Z,10.40
2022-12-26T11:23:29.032Z,9.77
2022-12-26T11:33:34.201Z,9.45
2022-12-26T11:43:38.665Z,9.34
2022-12-26T11:53:41.451Z,8.98
2022-12-26T12:03:50.094Z,8.30
2022-12-26T12:14:22.395Z,8.28
2022-12-26T12:24:38.943Z,8.17
2022-12-26T12:35:10.593Z,8.21
2022-12-26T12:45:35.048Z,8.34
2022-12-26T12:55:48.036Z,7.43
2022-12-26T13:05:58.960Z,7.89
2022-12-26T13:16:07.136Z,8.07
2022-12-26T13:26:15.447Z,7.93
2022-12-26T13:36:40.957Z,8.02
2022-12-26T13:46:57.906Z,8.23
2022-12-26T13:57:37.593Z,8.34
2022-12-26T14:07:47.776Z,8.34
2022-12-26T14:18:01.912Z,8.19
2022-12-26T14:28:16.555Z,8.30
2022-12-26T14:38:29.856Z,8.34
2022-12-26T14:48:52.770Z,7.45
2022-12-26T14:59:26.866Z,7.55
2022-12-26T15:10:08.347Z,7.25
2022-12-26T15:20:47.642Z,6.98
2022-12-26T15:31:08.030Z,6.79
2022-12-26T15:41:17.422Z,6.64
2022-12-26T15:51:29.492Z,6.30
2022-12-26T16:01:41.261Z,6.28
2022-12-26T16:11:51.338Z,6.16
2022-12-26T16:22:18.021Z,6.08
2022-12-26T16:32:24.948Z,6.14
2022-12-26T16:42:32.222Z,6.01
2022-12-26T16:52:45.605Z,5.96
2022-12-26T17:02:53.299Z,5.93
2022-12-26T17:12:59.102Z,5.84
2022-12-26T17:23:36.676Z,5.80
2022-12-26T17:33:47.591Z,5.67
2022-12-26T17:43:52.849Z,5.55
2022-12-26T17:53:55.604Z,5.50
2022-12-26T18:03:59.592Z,5.40
2022-12-26T18:14:02.283Z,5.46
2022-12-26T18:24:06.830Z,5.37
2022-12-26T18:34:09.537Z,5.38
2022-12-26T18:44:15.634Z,5.26
2022-12-26T18:54:18.575Z,5.23
2022-12-26T19:04:23.476Z,5.24
2022-12-26T19:14:26.488Z,5.15
2022-12-26T19:24:30.721Z,4.98
2022-12-26T19:34:33.828Z,4.89
2022-12-26T19:44:38.224Z,4.82
2022-12-26T19:54:40.970Z,4.63
2022-12-26T20:04:45.090Z,4.62
2022-12-26T20:14:47.873Z,4.76
2022-12-26T20:24:51.878Z,4.90
2022-12-26T20:34:54.658Z,4.98
2022-12-26T20:44:58.715Z,5.02
2022-12-26T20:55:01.501Z,5.11
2022-12-26T21:05:06.459Z,4.89
2022-12-26T21:15:10.460Z,4.91
2022-12-26T21:25:15.662Z,4.95
2022-12-26T21:35:18.463Z,4.98
2022-12-26T21:45:22.492Z,5.01
2022-12-26T21:56:16.249Z,4.96
2022-12-26T22:06:20.622Z,4.81
2022-12-26T22:16:23.335Z,4.75
2022-12-26T22:26:29.702Z,4.74
2022-12-26T22:36:33.120Z,4.84
2022-12-26T22:46:37.296Z,4.86
2022-12-26T22:56:40.138Z,4.86
2022-12-26T23:06:44.877Z,4.61
2022-12-26T23:16:53.168Z,4.68
2022-12-26T23:27:19.900Z,4.51
2022-12-26T23:37:22.585Z,4.52
2022-12-26T23:47:26.822Z,4.53
2022-12-26T23:57:29.536Z,4.43
